Strona główna
METAR-TAF:

METAR-TAF

Lotnisko :

Baza lotnicza

Solenzara, Francja

Szerokość geograficzna: 41-55N, Długość geograficzna: 009-24E, wysokość: 8 m

Aktualna obserwacja pogody

Raport powstał 27 minut temu, godzina 11:30 UTC
Cisza
Temperatura 15°C
Wilgotność 82%
Ciśnienie 1019 hPa
Widzialność 10 km lub więcej
Zachmurzenie całkowite na wysokości 3900 ft

METAR: LFKS 161130Z AUTO 00000KT 9999 OVC039 15/12 Q1019

czas: 12:57 (11:57 UTC)

Prognoza

Raport powstał 3 godziny i 57 minut temu, godzina 08:00 UTC
Prognoza ważna od 16 godzina 09 UTC do 17 godzina 09 UTC
Wiatr 5 kt od południe
Widzialność 10 km lub więcej
Zachmurzenie całkowite na wysokości 4000 ft
Przejściowo
od 16 godzina 19 UTC do 17 godzina 06 UTC
Widzialność: 4000 m
Przerywane chmury na wysokości 1200 ft
mżawka

TAF: LFKS 160800Z 1609/1709 18005KT 9999 OVC040 TEMPO 1619/1706 4000 DZ BKN012

Obserwacja i prognoza pogody dla ponad 4000 lotnisk (raport METAR i TAF).

Dostępne stacje oznaczono żółtymi i czerwonymi punktami na mapie.

Najedź kursorem aby zobaczyć nazwę stacji.

Kliknij aby zobaczyć obserwacje i prognozy pogody.

Aby zmienić mapę: kliknij na zielony przycisk z czarnym krzyżykiem, aby powiększyć; na zielony przycisk z myślnikiem, aby pomniejszyć; na zielone strzałki, aby przejść do map sąsiednich.


METAR-TAF: